Terminal Aerodrome Forecast
Issued by NWS

Home | Current Version | Previous Version | Text Only | Print | Product List | Glossary On
Versions: 1 2 3 4 5 6 7 8 9 10 11 12 13 14 15 16 17 18
000
FTUS43 KPAH 301720
TAFOWB
TAF
KOWB 301720Z 3018/0118 33007KT P6SM VCSH SCT015 OVC030
      TEMPO 3018/3022 4SM -SHRA BKN015
     FM302300 24005KT P6SM OVC015
     FM011500 27005KT P6SM VCSH BKN020=

USA.gov is the U.S. government's official web portal to all federal, state and local government web resources and services.